sensor_id;sensor_type;location;lat;lon;timestamp;pressure;altitude;pressure_sealevel;temperature;humidity
61742;BME280;47650;49.848;9.620;2023-03-14T00:00:25;97766.81;;;9.70;100.00
61742;BME280;47650;49.848;9.620;2023-03-14T00:02:59;97770.34;;;9.92;100.00
61742;BME280;47650;49.848;9.620;2023-03-14T00:05:26;97718.81;;;9.73;100.00
61742;BME280;47650;49.848;9.620;2023-03-14T00:10:25;97768.06;;;9.89;100.00
61742;BME280;47650;49.848;9.620;2023-03-14T00:12:57;97761.28;;;10.02;100.00
61742;BME280;47650;49.848;9.620;2023-03-14T00:15:23;97768.19;;;9.81;100.00
61742;BME280;47650;49.848;9.620;2023-03-14T00:17:50;97768.78;;;9.98;100.00
61742;BME280;47650;49.848;9.620;2023-03-14T00:20:16;97697.84;;;9.72;100.00
61742;BME280;47650;49.848;9.620;2023-03-14T00:22:44;97755.16;;;10.01;100.00
61742;BME280;47650;49.848;9.620;2023-03-14T00:25:12;97761.59;;;9.92;100.00
61742;BME280;47650;49.848;9.620;2023-03-14T00:27:44;97730.31;;;9.81;100.00
61742;BME280;47650;49.848;9.620;2023-03-14T00:30:24;97743.19;;;10.05;100.00
61742;BME280;47650;49.848;9.620;2023-03-14T00:32:50;97748.63;;;9.97;100.00
61742;BME280;47650;49.848;9.620;2023-03-14T00:35:16;97752.84;;;10.13;100.00
61742;BME280;47650;49.848;9.620;2023-03-14T00:37:45;97754.63;;;10.06;100.00
61742;BME280;47650;49.848;9.620;2023-03-14T00:40:19;97760.13;;;9.89;100.00
61742;BME280;47650;49.848;9.620;2023-03-14T00:43:00;97763.09;;;10.01;100.00
61742;BME280;47650;49.848;9.620;2023-03-14T00:45:27;97758.28;;;10.26;100.00
61742;BME280;47650;49.848;9.620;2023-03-14T00:47:53;97758.78;;;10.15;100.00
61742;BME280;47650;49.848;9.620;2023-03-14T00:50:18;97755.06;;;10.09;100.00
61742;BME280;47650;49.848;9.620;2023-03-14T00:52:44;97721.28;;;9.75;100.00
61742;BME280;47650;49.848;9.620;2023-03-14T00:55:09;97754.34;;;10.01;100.00
61742;BME280;47650;49.848;9.620;2023-03-14T00:57:37;97739.47;;;10.00;100.00
61742;BME280;47650;49.848;9.620;2023-03-14T01:00:03;97768.94;;;9.96;100.00
61742;BME280;47650;49.848;9.620;2023-03-14T01:02:31;97765.47;;;10.11;100.00
61742;BME280;47650;49.848;9.620;2023-03-14T01:04:56;97763.91;;;10.02;100.00
61742;BME280;47650;49.848;9.620;2023-03-14T01:07:22;97647.28;;;9.45;100.00
61742;BME280;47650;49.848;9.620;2023-03-14T01:09:51;97751.47;;;10.17;100.00
61742;BME280;47650;49.848;9.620;2023-03-14T01:12:16;97757.53;;;10.11;100.00
61742;BME280;47650;49.848;9.620;2023-03-14T01:14:44;97773.78;;;10.08;100.00
61742;BME280;47650;49.848;9.620;2023-03-14T01:17:11;97751.19;;;9.90;100.00
61742;BME280;47650;49.848;9.620;2023-03-14T01:19:40;97729.25;;;9.96;100.00
61742;BME280;47650;49.848;9.620;2023-03-14T01:22:09;97753.59;;;10.07;100.00
61742;BME280;47650;49.848;9.620;2023-03-14T01:24:36;97753.72;;;9.98;100.00
61742;BME280;47650;49.848;9.620;2023-03-14T01:27:02;97746.94;;;10.11;100.00
61742;BME280;47650;49.848;9.620;2023-03-14T01:29:31;97759.59;;;10.15;100.00
61742;BME280;47650;49.848;9.620;2023-03-14T01:31:57;97749.44;;;9.97;100.00
61742;BME280;47650;49.848;9.620;2023-03-14T01:34:23;97755.59;;;10.05;100.00
61742;BME280;47650;49.848;9.620;2023-03-14T01:36:48;97741.75;;;10.03;100.00
61742;BME280;47650;49.848;9.620;2023-03-14T01:39:15;97736.72;;;10.08;100.00
61742;BME280;47650;49.848;9.620;2023-03-14T01:41:40;97725.69;;;10.04;100.00
61742;BME280;47650;49.848;9.620;2023-03-14T01:44:13;97718.91;;;10.02;100.00
61742;BME280;47650;49.848;9.620;2023-03-14T01:46:43;97718.25;;;10.14;100.00
61742;BME280;47650;49.848;9.620;2023-03-14T01:49:11;97705.31;;;10.05;100.00
61742;BME280;47650;49.848;9.620;2023-03-14T01:51:46;97707.81;;;9.91;100.00
61742;BME280;47650;49.848;9.620;2023-03-14T01:54:27;97701.78;;;9.97;100.00
61742;BME280;47650;49.848;9.620;2023-03-14T01:59:57;97698.94;;;9.99;100.00
61742;BME280;47650;49.848;9.620;2023-03-14T02:02:26;97698.44;;;10.10;100.00
61742;BME280;47650;49.848;9.620;2023-03-14T02:04:58;97656.56;;;9.77;100.00
61742;BME280;47650;49.848;9.620;2023-03-14T02:07:36;97680.53;;;9.91;100.00
61742;BME280;47650;49.848;9.620;2023-03-14T02:10:04;97657.03;;;9.81;100.00
61742;BME280;47650;49.848;9.620;2023-03-14T02:12:32;97667.63;;;9.81;99.66
61742;BME280;47650;49.848;9.620;2023-03-14T02:14:58;97661.84;;;9.77;99.30
61742;BME280;47650;49.848;9.620;2023-03-14T02:17:26;97679.09;;;9.88;100.00
61742;BME280;47650;49.848;9.620;2023-03-14T02:22:53;97656.25;;;10.30;100.00
61742;BME280;47650;49.848;9.620;2023-03-14T02:27:56;97655.59;;;10.00;97.88
61742;BME280;47650;49.848;9.620;2023-03-14T02:30:23;97645.28;;;10.12;97.40
61742;BME280;47650;49.848;9.620;2023-03-14T02:32:55;97616.81;;;9.92;96.22
61742;BME280;47650;49.848;9.620;2023-03-14T02:35:36;97602.03;;;10.05;98.32
61742;BME280;47650;49.848;9.620;2023-03-14T02:38:15;97629.03;;;10.37;97.14
61742;BME280;47650;49.848;9.620;2023-03-14T02:40:56;97629.69;;;10.45;98.13
61742;BME280;47650;49.848;9.620;2023-03-14T02:43:22;97637.25;;;10.48;97.29
61742;BME280;47650;49.848;9.620;2023-03-14T02:45:49;97634.25;;;10.58;97.29
61742;BME280;47650;49.848;9.620;2023-03-14T02:48:26;97636.19;;;10.43;97.60
61742;BME280;47650;49.848;9.620;2023-03-14T02:50:54;97615.97;;;10.35;98.09
61742;BME280;47650;49.848;9.620;2023-03-14T02:53:33;97637.97;;;10.64;98.33
61742;BME280;47650;49.848;9.620;2023-03-14T02:55:59;97639.84;;;10.20;95.67
61742;BME280;47650;49.848;9.620;2023-03-14T02:58:25;97609.81;;;10.06;97.06
61742;BME280;47650;49.848;9.620;2023-03-14T03:00:50;97605.75;;;10.10;97.37
61742;BME280;47650;49.848;9.620;2023-03-14T03:03:16;97622.72;;;10.16;97.27
61742;BME280;47650;49.848;9.620;2023-03-14T03:05:42;97597.91;;;9.95;96.26
61742;BME280;47650;49.848;9.620;2023-03-14T03:08:16;97607.69;;;10.23;96.66
61742;BME280;47650;49.848;9.620;2023-03-14T03:10:43;97606.41;;;10.12;96.03
61742;BME280;47650;49.848;9.620;2023-03-14T03:13:10;97598.06;;;10.15;97.20
61742;BME280;47650;49.848;9.620;2023-03-14T03:15:35;97602.47;;;10.08;94.34
61742;BME280;47650;49.848;9.620;2023-03-14T03:18:01;97599.25;;;10.34;96.04
61742;BME280;47650;49.848;9.620;2023-03-14T03:20:28;97597.47;;;10.20;94.57
61742;BME280;47650;49.848;9.620;2023-03-14T03:22:55;97581.28;;;10.08;94.90
61742;BME280;47650;49.848;9.620;2023-03-14T03:25:20;97605.25;;;10.22;94.51
61742;BME280;47650;49.848;9.620;2023-03-14T03:27:46;97608.56;;;10.30;93.52
61742;BME280;47650;49.848;9.620;2023-03-14T03:30:12;97609.03;;;10.34;91.67
61742;BME280;47650;49.848;9.620;2023-03-14T03:32:38;97591.28;;;10.34;88.25
61742;BME280;47650;49.848;9.620;2023-03-14T03:35:05;97596.41;;;10.36;88.11
61742;BME280;47650;49.848;9.620;2023-03-14T03:37:33;97605.91;;;10.52;86.80
61742;BME280;47650;49.848;9.620;2023-03-14T03:39:58;97603.34;;;10.72;87.10
61742;BME280;47650;49.848;9.620;2023-03-14T03:42:26;97595.88;;;10.82;85.85
61742;BME280;47650;49.848;9.620;2023-03-14T03:44:52;97597.81;;;10.67;84.19
61742;BME280;47650;49.848;9.620;2023-03-14T03:47:17;97604.50;;;10.56;82.04
61742;BME280;47650;49.848;9.620;2023-03-14T03:49:42;97578.47;;;10.66;82.56
61742;BME280;47650;49.848;9.620;2023-03-14T03:52:14;97580.78;;;10.83;81.87
61742;BME280;47650;49.848;9.620;2023-03-14T03:54:40;97585.47;;;10.81;81.17
61742;BME280;47650;49.848;9.620;2023-03-14T03:57:05;97560.94;;;10.72;80.14
61742;BME280;47650;49.848;9.620;2023-03-14T03:59:31;97567.75;;;10.88;79.91
61742;BME280;47650;49.848;9.620;2023-03-14T04:01:56;97561.25;;;10.90;79.29
61742;BME280;47650;49.848;9.620;2023-03-14T04:04:22;97577.84;;;11.06;78.38
61742;BME280;47650;49.848;9.620;2023-03-14T04:06:50;97543.13;;;11.01;78.34
61742;BME280;47650;49.848;9.620;2023-03-14T04:09:15;97551.13;;;11.21;77.93
61742;BME280;47650;49.848;9.620;2023-03-14T04:11:40;97545.44;;;11.24;77.17
61742;BME280;47650;49.848;9.620;2023-03-14T04:14:08;97545.44;;;11.24;77.39
61742;BME280;47650;49.848;9.620;2023-03-14T04:16:35;97536.06;;;11.35;76.88
61742;BME280;47650;49.848;9.620;2023-03-14T04:19:10;97536.47;;;11.38;77.00
61742;BME280;47650;49.848;9.620;2023-03-14T04:21:36;97549.53;;;11.20;76.60
61742;BME280;47650;49.848;9.620;2023-03-14T04:24:02;97538.94;;;11.40;76.06
61742;BME280;47650;49.848;9.620;2023-03-14T04:26:28;97535.22;;;11.21;75.99
61742;BME280;47650;49.848;9.620;2023-03-14T04:28:53;97513.59;;;11.17;76.53
61742;BME280;47650;49.848;9.620;2023-03-14T04:31:21;97527.69;;;11.24;75.92
61742;BME280;47650;49.848;9.620;2023-03-14T04:33:46;97520.13;;;11.28;75.72
61742;BME280;47650;49.848;9.620;2023-03-14T04:36:12;97516.25;;;11.17;75.72
61742;BME280;47650;49.848;9.620;2023-03-14T04:38:39;97514.72;;;10.88;76.71
61742;BME280;47650;49.848;9.620;2023-03-14T04:41:06;97534.34;;;10.94;76.71
61742;BME280;47650;49.848;9.620;2023-03-14T04:43:33;97518.19;;;10.82;75.43
61742;BME280;47650;49.848;9.620;2023-03-14T04:46:06;97534.91;;;10.82;75.14
61742;BME280;47650;49.848;9.620;2023-03-14T04:48:32;97540.63;;;10.86;75.69
61742;BME280;47650;49.848;9.620;2023-03-14T04:50:57;97527.53;;;10.78;76.02
61742;BME280;47650;49.848;9.620;2023-03-14T04:53:23;97532.72;;;10.99;74.87
61742;BME280;47650;49.848;9.620;2023-03-14T04:55:53;97538.56;;;10.81;74.55
61742;BME280;47650;49.848;9.620;2023-03-14T04:58:22;97528.78;;;10.82;73.13
61742;BME280;47650;49.848;9.620;2023-03-14T05:00:49;97511.81;;;10.76;72.41
61742;BME280;47650;49.848;9.620;2023-03-14T05:03:18;97518.00;;;10.90;72.37
61742;BME280;47650;49.848;9.620;2023-03-14T05:05:45;97509.81;;;10.78;71.84
61742;BME280;47650;49.848;9.620;2023-03-14T05:08:12;97498.78;;;10.75;70.47
61742;BME280;47650;49.848;9.620;2023-03-14T05:10:37;97527.97;;;10.88;70.99
61742;BME280;47650;49.848;9.620;2023-03-14T05:13:03;97521.50;;;10.97;70.46
61742;BME280;47650;49.848;9.620;2023-03-14T05:15:29;97525.34;;;10.88;70.23
61742;BME280;47650;49.848;9.620;2023-03-14T05:17:54;97521.28;;;10.92;69.60
61742;BME280;47650;49.848;9.620;2023-03-14T05:20:20;97503.09;;;10.82;69.28
61742;BME280;47650;49.848;9.620;2023-03-14T05:22:47;97501.31;;;11.03;69.40
61742;BME280;47650;49.848;9.620;2023-03-14T05:25:12;97516.44;;;11.02;69.26
61742;BME280;47650;49.848;9.620;2023-03-14T05:27:38;97442.50;;;10.66;68.99
61742;BME280;47650;49.848;9.620;2023-03-14T05:30:05;97496.03;;;11.03;68.52
61742;BME280;47650;49.848;9.620;2023-03-14T05:32:35;97506.03;;;11.07;68.04
61742;BME280;47650;49.848;9.620;2023-03-14T05:35:00;97495.22;;;11.16;68.16
61742;BME280;47650;49.848;9.620;2023-03-14T05:37:26;97479.31;;;11.16;67.52
61742;BME280;47650;49.848;9.620;2023-03-14T05:39:52;97489.31;;;11.20;67.46
61742;BME280;47650;49.848;9.620;2023-03-14T05:42:17;97508.91;;;11.19;67.72
61742;BME280;47650;49.848;9.620;2023-03-14T05:44:44;97497.88;;;11.16;68.39
61742;BME280;47650;49.848;9.620;2023-03-14T05:47:12;97490.97;;;11.41;67.40
61742;BME280;47650;49.848;9.620;2023-03-14T05:49:43;97479.72;;;11.26;68.14
61742;BME280;47650;49.848;9.620;2023-03-14T05:52:20;97498.13;;;11.34;67.57
61742;BME280;47650;49.848;9.620;2023-03-14T05:54:45;97485.03;;;11.13;68.06
61742;BME280;47650;49.848;9.620;2023-03-14T05:57:11;97485.88;;;11.20;67.91
61742;BME280;47650;49.848;9.620;2023-03-14T05:59:36;97487.69;;;11.26;67.50
61742;BME280;47650;49.848;9.620;2023-03-14T06:02:03;97463.44;;;11.42;67.18
61742;BME280;47650;49.848;9.620;2023-03-14T06:04:28;97454.84;;;11.27;66.71
61742;BME280;47650;49.848;9.620;2023-03-14T06:06:53;97478.50;;;11.22;66.64
61742;BME280;47650;49.848;9.620;2023-03-14T06:09:22;97484.63;;;11.22;66.54
61742;BME280;47650;49.848;9.620;2023-03-14T06:11:55;97449.72;;;11.05;66.57
61742;BME280;47650;49.848;9.620;2023-03-14T06:14:21;97455.84;;;11.19;66.68
61742;BME280;47650;49.848;9.620;2023-03-14T06:16:46;97480.75;;;11.38;66.22
61742;BME280;47650;49.848;9.620;2023-03-14T06:19:14;97468.28;;;10.99;66.59
61742;BME280;47650;49.848;9.620;2023-03-14T06:24:07;97486.22;;;11.03;66.57
61742;BME280;47650;49.848;9.620;2023-03-14T06:26:32;97477.28;;;11.18;66.26
61742;BME280;47650;49.848;9.620;2023-03-14T06:28:59;97480.97;;;11.30;65.92
61742;BME280;47650;49.848;9.620;2023-03-14T06:31:31;97482.00;;;11.42;65.56
61742;BME280;47650;49.848;9.620;2023-03-14T06:33:56;97486.69;;;11.34;66.07
61742;BME280;47650;49.848;9.620;2023-03-14T06:36:22;97481.97;;;11.22;65.47
61742;BME280;47650;49.848;9.620;2023-03-14T06:38:59;97464.03;;;11.18;65.06
61742;BME280;47650;49.848;9.620;2023-03-14T06:41:25;97483.22;;;11.33;65.37
61742;BME280;47650;49.848;9.620;2023-03-14T06:43:53;97468.47;;;11.10;66.55
61742;BME280;47650;49.848;9.620;2023-03-14T06:46:19;97482.19;;;11.34;65.94
61742;BME280;47650;49.848;9.620;2023-03-14T06:48:44;97483.81;;;11.42;65.49
61742;BME280;47650;49.848;9.620;2023-03-14T06:51:10;97477.91;;;11.46;65.82
61742;BME280;47650;49.848;9.620;2023-03-14T06:53:37;97461.56;;;11.29;66.01
61742;BME280;47650;49.848;9.620;2023-03-14T06:56:03;97477.72;;;11.41;66.39
61742;BME280;47650;49.848;9.620;2023-03-14T06:58:28;97452.78;;;11.16;66.03
61742;BME280;47650;49.848;9.620;2023-03-14T07:00:54;97452.78;;;11.16;66.40
61742;BME280;47650;49.848;9.620;2023-03-14T07:03:20;97461.38;;;11.24;66.03
61742;BME280;47650;49.848;9.620;2023-03-14T07:05:47;97462.63;;;11.35;65.02
61742;BME280;47650;49.848;9.620;2023-03-14T07:08:14;97442.19;;;11.29;65.97
61742;BME280;47650;49.848;9.620;2023-03-14T07:10:39;97458.94;;;11.63;65.14
61742;BME280;47650;49.848;9.620;2023-03-14T07:13:06;97445.47;;;11.58;64.73
61742;BME280;47650;49.848;9.620;2023-03-14T07:15:32;97456.91;;;11.78;64.69
61742;BME280;47650;49.848;9.620;2023-03-14T07:17:57;97466.88;;;11.90;63.62
61742;BME280;47650;49.848;9.620;2023-03-14T07:20:24;97451.16;;;12.01;63.41
61742;BME280;47650;49.848;9.620;2023-03-14T07:22:50;97457.50;;;12.07;63.17
61742;BME280;47650;49.848;9.620;2023-03-14T07:25:16;97458.91;;;11.90;62.81
61742;BME280;47650;49.848;9.620;2023-03-14T07:27:46;97430.56;;;11.70;62.74
61742;BME280;47650;49.848;9.620;2023-03-14T07:30:13;97479.78;;;12.06;62.89
61742;BME280;47650;49.848;9.620;2023-03-14T07:32:39;97476.09;;;11.94;62.86
61742;BME280;47650;49.848;9.620;2023-03-14T07:35:05;97480.34;;;12.21;62.88
61742;BME280;47650;49.848;9.620;2023-03-14T07:37:31;97478.72;;;12.07;62.22
61742;BME280;47650;49.848;9.620;2023-03-14T07:39:56;97454.84;;;11.80;63.01
61742;BME280;47650;49.848;9.620;2023-03-14T07:42:21;97475.69;;;11.97;63.26
61742;BME280;47650;49.848;9.620;2023-03-14T07:44:48;97483.84;;;11.95;63.90
61742;BME280;47650;49.848;9.620;2023-03-14T07:47:13;97484.66;;;12.09;63.77
61742;BME280;47650;49.848;9.620;2023-03-14T07:49:40;97468.72;;;11.82;63.81
61742;BME280;47650;49.848;9.620;2023-03-14T07:52:07;97485.09;;;12.06;63.82
61742;BME280;47650;49.848;9.620;2023-03-14T07:54:32;97500.22;;;11.92;63.86
61742;BME280;47650;49.848;9.620;2023-03-14T07:56:58;97477.28;;;11.24;65.94
61742;BME280;47650;49.848;9.620;2023-03-14T07:59:27;97487.28;;;11.29;68.30
61742;BME280;47650;49.848;9.620;2023-03-14T08:01:54;97493.41;;;11.16;67.54
61742;BME280;47650;49.848;9.620;2023-03-14T08:04:19;97470.53;;;11.08;66.98
61742;BME280;47650;49.848;9.620;2023-03-14T08:06:44;97483.03;;;11.41;66.25
61742;BME280;47650;49.848;9.620;2023-03-14T08:09:11;97494.69;;;11.67;65.54
61742;BME280;47650;49.848;9.620;2023-03-14T08:11:36;97498.94;;;11.35;64.78
61742;BME280;47650;49.848;9.620;2023-03-14T08:14:03;97482.22;;;11.54;64.73
61742;BME280;47650;49.848;9.620;2023-03-14T08:16:29;97495.47;;;11.34;64.87
61742;BME280;47650;49.848;9.620;2023-03-14T08:18:54;97488.31;;;11.35;65.42
61742;BME280;47650;49.848;9.620;2023-03-14T08:21:21;97510.38;;;11.28;65.76
61742;BME280;47650;49.848;9.620;2023-03-14T08:23:48;97507.13;;;11.60;65.43
61742;BME280;47650;49.848;9.620;2023-03-14T08:26:13;97512.59;;;11.38;65.22
61742;BME280;47650;49.848;9.620;2023-03-14T08:28:40;97503.03;;;11.71;65.09
61742;BME280;47650;49.848;9.620;2023-03-14T08:31:06;97495.09;;;11.51;65.74
61742;BME280;47650;49.848;9.620;2023-03-14T08:33:31;97496.91;;;11.30;66.60
61742;BME280;47650;49.848;9.620;2023-03-14T08:35:59;97511.41;;;11.41;67.41
61742;BME280;47650;49.848;9.620;2023-03-14T08:38:27;97503.22;;;11.29;68.02
61742;BME280;47650;49.848;9.620;2023-03-14T08:40:59;97510.56;;;11.34;68.73
61742;BME280;47650;49.848;9.620;2023-03-14T08:43:28;97502.97;;;11.10;69.31
61742;BME280;47650;49.848;9.620;2023-03-14T08:45:56;97517.56;;;11.68;69.50
61742;BME280;47650;49.848;9.620;2023-03-14T08:48:23;97503.03;;;11.37;70.26
61742;BME280;47650;49.848;9.620;2023-03-14T08:51:03;97498.53;;;11.84;68.78
61742;BME280;47650;49.848;9.620;2023-03-14T08:53:29;97509.59;;;11.95;68.07
61742;BME280;47650;49.848;9.620;2023-03-14T08:55:54;97508.34;;;11.77;67.88
61742;BME280;47650;49.848;9.620;2023-03-14T08:58:20;97525.94;;;11.92;68.18
61742;BME280;47650;49.848;9.620;2023-03-14T09:00:46;97518.56;;;11.67;68.42
61742;BME280;47650;49.848;9.620;2023-03-14T09:03:14;97515.72;;;11.75;69.21
61742;BME280;47650;49.848;9.620;2023-03-14T09:05:41;97515.72;;;11.95;68.37
61742;BME280;47650;49.848;9.620;2023-03-14T09:08:06;97513.69;;;11.91;68.12
61742;BME280;47650;49.848;9.620;2023-03-14T09:10:32;97533.66;;;11.86;67.87
61742;BME280;47650;49.848;9.620;2023-03-14T09:12:57;97503.25;;;11.69;68.93
61742;BME280;47650;49.848;9.620;2023-03-14T09:15:25;97505.09;;;11.62;69.04
61742;BME280;47650;49.848;9.620;2023-03-14T09:17:51;97506.28;;;11.66;69.32
61742;BME280;47650;49.848;9.620;2023-03-14T09:20:25;97501.38;;;11.29;70.31
61742;BME280;47650;49.848;9.620;2023-03-14T09:22:52;97494.66;;;11.27;71.09
61742;BME280;47650;49.848;9.620;2023-03-14T09:25:19;97497.31;;;11.34;71.97
61742;BME280;47650;49.848;9.620;2023-03-14T09:27:44;97511.63;;;11.46;71.32
61742;BME280;47650;49.848;9.620;2023-03-14T09:30:13;97535.84;;;11.23;73.91
61742;BME280;47650;49.848;9.620;2023-03-14T09:32:39;97536.28;;;11.33;74.28
61742;BME280;47650;49.848;9.620;2023-03-14T09:35:14;97529.53;;;11.24;74.51
61742;BME280;47650;49.848;9.620;2023-03-14T09:37:46;97513.63;;;11.37;73.61
61742;BME280;47650;49.848;9.620;2023-03-14T09:40:16;97530.81;;;11.55;73.02
61742;BME280;47650;49.848;9.620;2023-03-14T09:42:53;97523.03;;;11.46;73.66
61742;BME280;47650;49.848;9.620;2023-03-14T09:45:36;97530.41;;;11.58;72.93
61742;BME280;47650;49.848;9.620;2023-03-14T09:48:14;97534.91;;;11.77;71.75
61742;BME280;47650;49.848;9.620;2023-03-14T09:50:44;97525.13;;;11.91;72.17
61742;BME280;47650;49.848;9.620;2023-03-14T09:53:26;97535.31;;;12.14;71.61
61742;BME280;47650;49.848;9.620;2023-03-14T09:56:12;97532.91;;;12.06;70.66
61742;BME280;47650;49.848;9.620;2023-03-14T09:58:45;97532.19;;;12.51;70.68
61742;BME280;47650;49.848;9.620;2023-03-14T10:01:22;97524.88;;;12.26;70.72
61742;BME280;47650;49.848;9.620;2023-03-14T10:03:56;97532.34;;;12.63;68.00
61742;BME280;47650;49.848;9.620;2023-03-14T10:06:27;97524.50;;;12.88;67.11
61742;BME280;47650;49.848;9.620;2023-03-14T10:08:56;97523.97;;;13.11;66.07
61742;BME280;47650;49.848;9.620;2023-03-14T10:11:22;97509.25;;;13.15;65.15
61742;BME280;47650;49.848;9.620;2023-03-14T10:14:02;97516.31;;;12.89;65.54
61742;BME280;47650;49.848;9.620;2023-03-14T10:16:36;97511.75;;;12.58;66.04
61742;BME280;47650;49.848;9.620;2023-03-14T10:19:09;97518.09;;;12.37;66.84
61742;BME280;47650;49.848;9.620;2023-03-14T10:21:57;97520.53;;;12.58;66.66
61742;BME280;47650;49.848;9.620;2023-03-14T10:26:58;97517.72;;;12.27;67.61
61742;BME280;47650;49.848;9.620;2023-03-14T10:29:25;97515.09;;;12.13;67.84
61742;BME280;47650;49.848;9.620;2023-03-14T10:31:54;97517.31;;;12.23;67.28
61742;BME280;47650;49.848;9.620;2023-03-14T10:34:31;97516.91;;;12.39;67.46
61742;BME280;47650;49.848;9.620;2023-03-14T10:37:04;97482.16;;;12.28;67.90
61742;BME280;47650;49.848;9.620;2023-03-14T10:39:55;97519.34;;;12.41;68.12
61742;BME280;47650;49.848;9.620;2023-03-14T10:42:32;97457.91;;;12.04;66.73
61742;BME280;47650;49.848;9.620;2023-03-14T10:45:04;97509.28;;;12.56;65.83
61742;BME280;47650;49.848;9.620;2023-03-14T10:47:48;97495.38;;;12.54;66.24
61742;BME280;47650;49.848;9.620;2023-03-14T10:50:26;97491.34;;;12.90;66.25
61742;BME280;47650;49.848;9.620;2023-03-14T10:52:53;97486.16;;;12.64;66.37
61742;BME280;47650;49.848;9.620;2023-03-14T10:55:18;97520.72;;;12.64;66.46
61742;BME280;47650;49.848;9.620;2023-03-14T10:57:45;97489.56;;;11.85;69.27
61742;BME280;47650;49.848;9.620;2023-03-14T11:00:17;97498.13;;;12.08;69.84
61742;BME280;47650;49.848;9.620;2023-03-14T11:03:01;97501.44;;;12.10;70.04
61742;BME280;47650;49.848;9.620;2023-03-14T11:05:44;97486.31;;;11.77;71.57
61742;BME280;47650;49.848;9.620;2023-03-14T11:08:25;97494.06;;;11.65;72.49
61742;BME280;47650;49.848;9.620;2023-03-14T11:11:25;97502.66;;;11.87;73.53
61742;BME280;47650;49.848;9.620;2023-03-14T11:14:38;97512.44;;;12.13;74.82
61742;BME280;47650;49.848;9.620;2023-03-14T11:22:47;97534.78;;;11.10;86.36
61742;BME280;47650;49.848;9.620;2023-03-14T11:28:12;97517.69;;;11.20;87.85
61742;BME280;47650;49.848;9.620;2023-03-14T11:30:51;97510.91;;;10.97;88.94
61742;BME280;47650;49.848;9.620;2023-03-14T11:36:41;97494.09;;;10.77;92.54
61742;BME280;47650;49.848;9.620;2023-03-14T11:39:17;97506.00;;;10.94;94.04
61742;BME280;47650;49.848;9.620;2023-03-14T11:41:49;97515.56;;;10.88;95.12
61742;BME280;47650;49.848;9.620;2023-03-14T11:44:27;97513.06;;;10.73;95.82
61742;BME280;47650;49.848;9.620;2023-03-14T11:47:01;97508.09;;;11.25;97.44
61742;BME280;47650;49.848;9.620;2023-03-14T11:49:48;97500.06;;;10.92;95.72
61742;BME280;47650;49.848;9.620;2023-03-14T11:52:38;97500.94;;;11.13;97.34
61742;BME280;47650;49.848;9.620;2023-03-14T11:55:31;97500.59;;;10.74;97.25
61742;BME280;47650;49.848;9.620;2023-03-14T11:58:18;97496.00;;;10.96;97.96
61742;BME280;47650;49.848;9.620;2023-03-14T12:00:48;97503.69;;;10.78;97.88
61742;BME280;47650;49.848;9.620;2023-03-14T12:03:52;97507.16;;;10.78;98.13
61742;BME280;47650;49.848;9.620;2023-03-14T12:06:37;97508.91;;;10.58;98.29
61742;BME280;47650;49.848;9.620;2023-03-14T12:09:06;97494.66;;;10.65;99.10
61742;BME280;47650;49.848;9.620;2023-03-14T12:11:55;97488.25;;;10.46;98.79
61742;BME280;47650;49.848;9.620;2023-03-14T12:14:32;97509.25;;;10.48;99.73
61742;BME280;47650;49.848;9.620;2023-03-14T12:16:59;97512.88;;;10.12;99.67
61742;BME280;47650;49.848;9.620;2023-03-14T12:19:35;97511.75;;;9.93;100.00
61742;BME280;47650;49.848;9.620;2023-03-14T12:24:37;97505.66;;;10.27;100.00
61742;BME280;47650;49.848;9.620;2023-03-14T12:27:05;97525.56;;;9.88;100.00
61742;BME280;47650;49.848;9.620;2023-03-14T12:29:31;97508.38;;;9.77;100.00
61742;BME280;47650;49.848;9.620;2023-03-14T12:34:51;97518.13;;;9.77;100.00
61742;BME280;47650;49.848;9.620;2023-03-14T12:42:57;97520.75;;;9.98;100.00
61742;BME280;47650;49.848;9.620;2023-03-14T12:45:32;97518.88;;;9.92;100.00
61742;BME280;47650;49.848;9.620;2023-03-14T12:48:10;97519.91;;;9.98;100.00
61742;BME280;47650;49.848;9.620;2023-03-14T12:51:02;97523.66;;;10.04;100.00
61742;BME280;47650;49.848;9.620;2023-03-14T12:56:43;97531.03;;;10.15;100.00
61742;BME280;47650;49.848;9.620;2023-03-14T13:12:41;97563.94;;;9.99;100.00
61742;BME280;47650;49.848;9.620;2023-03-14T13:15:14;97587.72;;;9.71;100.00
61742;BME280;47650;49.848;9.620;2023-03-14T13:17:41;97651.59;;;9.68;100.00
61742;BME280;47650;49.848;9.620;2023-03-14T13:20:21;97642.28;;;9.35;96.13
61742;BME280;47650;49.848;9.620;2023-03-14T13:23:00;97658.72;;;9.01;97.58
61742;BME280;47650;49.848;9.620;2023-03-14T13:25:44;97689.91;;;9.06;97.54
61742;BME280;47650;49.848;9.620;2023-03-14T13:28:10;97733.81;;;8.62;93.74
61742;BME280;47650;49.848;9.620;2023-03-14T13:30:42;97748.28;;;8.66;94.94
61742;BME280;47650;49.848;9.620;2023-03-14T13:33:18;97741.41;;;8.95;96.10
61742;BME280;47650;49.848;9.620;2023-03-14T13:35:54;97743.94;;;8.88;94.71
61742;BME280;47650;49.848;9.620;2023-03-14T13:38:34;97778.81;;;8.45;92.58
61742;BME280;47650;49.848;9.620;2023-03-14T13:41:05;97786.41;;;8.49;93.12
61742;BME280;47650;49.848;9.620;2023-03-14T13:43:39;97786.41;;;8.40;93.02
61742;BME280;47650;49.848;9.620;2023-03-14T13:46:16;97790.13;;;8.31;94.00
61742;BME280;47650;49.848;9.620;2023-03-14T13:48:48;97808.25;;;8.34;94.04
61742;BME280;47650;49.848;9.620;2023-03-14T13:51:17;97784.94;;;8.15;93.92
61742;BME280;47650;49.848;9.620;2023-03-14T13:53:46;97821.94;;;8.38;95.90
61742;BME280;47650;49.848;9.620;2023-03-14T13:56:12;97811.44;;;8.53;95.82
61742;BME280;47650;49.848;9.620;2023-03-14T13:58:38;97825.31;;;8.55;95.27
61742;BME280;47650;49.848;9.620;2023-03-14T14:03:52;97845.88;;;8.44;92.87
61742;BME280;47650;49.848;9.620;2023-03-14T14:06:29;97837.47;;;8.64;94.85
61742;BME280;47650;49.848;9.620;2023-03-14T14:12:06;97870.50;;;8.60;96.06
61742;BME280;47650;49.848;9.620;2023-03-14T14:14:47;97898.38;;;8.31;96.74